Time;durP1;ratioP1;P1;durP2;ratioP2;P2;SDS_P1;SDS_P2;PMS_P1;PMS_P2;Temp;Humidity;BMP_temperature;BMP_pressure;BME280_temperature;BME280_humidity;BME280_pressure;Samples;Min_cycle;Max_cycle;Signal;HPM_P1;HPM_P2
2021/01/14 00:02:21;;;;;;;11.70;6.33;;;5.90;99.90;;;;;;6041800;23;20474;-80
2021/01/14 00:05:13;;;;;;;13.40;7.80;;;6.00;99.90;;;;;;6034601;23;20465;-81
2021/01/14 00:07:46;;;;;;;11.13;6.13;;;5.90;99.90;;;;;;6040407;23;20425;-82
2021/01/14 00:10:28;;;;;;;9.53;6.30;;;5.90;99.90;;;;;;6036758;23;20411;-82
2021/01/14 00:12:59;;;;;;;13.83;6.10;;;6.00;99.90;;;;;;6034908;23;20478;-80
2021/01/14 00:15:30;;;;;;;11.40;6.17;;;6.20;99.90;;;;;;6036003;23;20426;-80
2021/01/14 00:18:03;;;;;;;9.17;6.57;;;6.30;99.90;;;;;;6034974;23;20418;-82
2021/01/14 00:20:36;;;;;;;11.10;6.60;;;6.10;99.90;;;;;;6034351;23;20910;-81
2021/01/14 00:23:05;;;;;;;8.67;6.00;;;6.00;99.90;;;;;;6033378;23;20417;-81
2021/01/14 00:25:36;;;;;;;10.00;6.20;;;6.00;99.90;;;;;;6029993;23;20719;-81
2021/01/14 00:28:18;;;;;;;14.73;6.10;;;6.00;99.90;;;;;;6032290;23;20478;-82
2021/01/14 00:31:04;;;;;;;13.27;5.80;;;6.00;99.90;;;;;;6032857;23;20391;-79
2021/01/14 00:34:06;;;;;;;10.03;6.10;;;6.00;99.90;;;;;;6029924;23;20517;-80
2021/01/14 00:39:32;;;;;;;10.67;6.07;;;6.00;99.90;;;;;;6035382;23;20470;-82
2021/01/14 00:42:00;;;;;;;6.07;5.13;;;6.00;99.90;;;;;;6036048;23;20414;-79
2021/01/14 00:44:43;;;;;;;16.03;8.90;;;6.00;99.90;;;;;;6009800;23;20454;-83
2021/01/14 00:47:09;;;;;;;11.00;5.70;;;6.00;99.90;;;;;;6040738;23;20450;-79
2021/01/14 00:49:40;;;;;;;7.03;5.30;;;6.20;99.90;;;;;;6057200;23;20515;-81
2021/01/14 00:52:09;;;;;;;8.00;5.50;;;6.20;99.90;;;;;;6056357;23;20443;-81
2021/01/14 00:54:39;;;;;;;7.50;4.90;;;6.10;99.90;;;;;;6032090;23;20430;-81
2021/01/14 00:57:15;;;;;;;10.03;5.17;;;6.10;99.90;;;;;;6055141;23;20418;-82
2021/01/14 00:59:41;;;;;;;8.37;5.17;;;6.10;99.90;;;;;;6034786;23;20426;-81
2021/01/14 01:02:15;;;;;;;6.93;5.40;;;6.00;99.90;;;;;;6034283;23;20497;-81
2021/01/14 01:04:51;;;;;;;7.87;4.77;;;6.00;99.90;;;;;;6057358;23;20910;-81
2021/01/14 01:07:50;;;;;;;7.80;5.40;;;6.20;99.90;;;;;;6034709;23;20450;-81
2021/01/14 01:10:20;;;;;;;5.80;4.73;;;6.10;99.90;;;;;;6058181;23;20985;-80
2021/01/14 01:12:51;;;;;;;9.83;4.87;;;6.10;99.90;;;;;;6035813;23;20532;-80
2021/01/14 01:15:25;;;;;;;10.73;5.73;;;6.30;99.90;;;;;;6037154;23;21037;-79
2021/01/14 01:17:57;;;;;;;10.70;5.60;;;6.20;99.90;;;;;;6043533;23;20435;-79
2021/01/14 01:20:37;;;;;;;6.37;4.73;;;6.20;99.90;;;;;;6035276;23;20426;-80
2021/01/14 01:23:03;;;;;;;10.37;5.23;;;6.30;99.90;;;;;;6035143;23;20526;-80
2021/01/14 01:25:30;;;;;;;4.70;4.30;;;6.60;99.90;;;;;;6035504;23;20494;-81
2021/01/14 01:28:06;;;;;;;7.83;3.67;;;6.70;99.90;;;;;;6058508;23;20411;-80
2021/01/14 01:30:38;;;;;;;5.40;2.80;;;6.60;99.90;;;;;;6036807;23;20517;-80
2021/01/14 01:33:07;;;;;;;5.00;1.53;;;6.40;99.90;;;;;;6043295;23;20441;-79
2021/01/14 01:35:39;;;;;;;8.33;2.17;;;6.40;97.80;;;;;;6064736;23;20414;-79
2021/01/14 01:38:11;;;;;;;4.30;1.30;;;6.30;96.50;;;;;;6074123;23;20450;-81
2021/01/14 01:40:58;;;;;;;9.80;1.80;;;6.20;95.40;;;;;;6075791;23;20434;-80
2021/01/14 01:43:38;;;;;;;4.23;1.67;;;6.30;93.80;;;;;;6055764;23;20441;-80
2021/01/14 01:46:28;;;;;;;2.00;1.07;;;6.20;94.10;;;;;;6078727;23;20473;-79
2021/01/14 01:49:05;;;;;;;5.17;1.37;;;6.20;93.90;;;;;;6077983;23;20419;-80
2021/01/14 01:51:42;;;;;;;6.67;1.23;;;6.20;94.30;;;;;;6078261;23;20573;-79
2021/01/14 01:54:20;;;;;;;5.90;1.30;;;6.10;94.70;;;;;;6054827;23;20462;-81
2021/01/14 01:56:51;;;;;;;3.30;1.10;;;6.10;94.40;;;;;;6054854;23;20410;-80
2021/01/14 01:59:21;;;;;;;6.83;1.87;;;6.20;94.70;;;;;;6072699;23;20418;-79
2021/01/14 02:01:53;;;;;;;1.80;1.13;;;6.30;94.00;;;;;;6046664;23;20441;-79
2021/01/14 02:04:24;;;;;;;5.77;1.43;;;6.20;94.40;;;;;;6045482;23;20442;-80
2021/01/14 02:07:07;;;;;;;6.13;1.50;;;6.00;95.10;;;;;;6066846;23;20481;-81
2021/01/14 02:09:42;;;;;;;8.63;1.80;;;6.00;95.20;;;;;;6047760;23;20422;-80
2021/01/14 02:12:17;;;;;;;2.30;1.00;;;5.80;95.50;;;;;;6041502;23;20446;-78
2021/01/14 02:15:01;;;;;;;3.43;1.13;;;5.80;96.20;;;;;;6061410;23;20437;-79
2021/01/14 02:17:28;;;;;;;5.53;1.07;;;6.00;96.30;;;;;;6043797;23;20411;-79
2021/01/14 02:20:01;;;;;;;5.03;1.70;;;5.90;96.20;;;;;;6040392;23;20442;-79
2021/01/14 02:22:37;;;;;;;5.30;1.60;;;5.90;96.70;;;;;;6039222;23;20424;-78
2021/01/14 02:25:25;;;;;;;4.97;1.77;;;6.10;96.50;;;;;;6045631;23;20498;-80
2021/01/14 02:27:56;;;;;;;7.13;1.60;;;5.90;96.40;;;;;;6043584;23;20467;-79
2021/01/14 02:30:31;;;;;;;4.33;1.20;;;5.70;96.80;;;;;;6044101;23;20439;-78
2021/01/14 02:33:05;;;;;;;5.17;1.50;;;5.70;97.00;;;;;;6042918;23;20454;-79
2021/01/14 02:35:36;;;;;;;8.17;1.63;;;6.00;96.60;;;;;;6047137;23;20410;-80
2021/01/14 02:38:08;;;;;;;4.80;1.30;;;5.80;96.20;;;;;;6050160;23;20434;-78
2021/01/14 02:40:35;;;;;;;1.33;0.80;;;6.00;95.60;;;;;;6045703;23;20407;-77
2021/01/14 02:43:10;;;;;;;5.47;1.00;;;5.90;95.00;;;;;;6046796;23;20410;-80
2021/01/14 02:45:50;;;;;;;1.33;1.07;;;5.90;95.30;;;;;;6073630;23;20445;-80
2021/01/14 02:48:33;;;;;;;3.13;0.70;;;5.80;95.20;;;;;;6059189;23;20476;-79
2021/01/14 02:51:12;;;;;;;3.40;1.10;;;6.10;94.60;;;;;;6073590;23;20592;-78
2021/01/14 02:53:44;;;;;;;4.57;1.20;;;5.90;94.20;;;;;;6044633;23;20437;-79
2021/01/14 02:56:26;;;;;;;3.03;0.90;;;5.80;94.20;;;;;;6047963;23;20473;-79
2021/01/14 02:59:06;;;;;;;2.57;1.03;;;6.10;93.60;;;;;;6059211;23;20416;-79
2021/01/14 03:01:35;;;;;;;5.80;1.30;;;6.00;93.40;;;;;;6084342;23;20405;-81
2021/01/14 03:04:11;;;;;;;4.13;0.83;;;6.10;93.20;;;;;;6083902;23;20528;-79
2021/01/14 03:06:58;;;;;;;3.53;0.97;;;5.70;93.60;;;;;;6059115;23;20472;-79
2021/01/14 03:09:40;;;;;;;5.67;0.80;;;5.60;94.10;;;;;;6072505;23;20419;-80
2021/01/14 03:12:13;;;;;;;4.27;1.70;;;5.60;94.30;;;;;;6074682;23;20413;-79
2021/01/14 03:14:47;;;;;;;6.97;1.50;;;5.80;94.60;;;;;;6055031;23;20440;-78
2021/01/14 03:17:14;;;;;;;6.10;1.60;;;5.90;94.20;;;;;;6051047;23;20930;-81
2021/01/14 03:19:45;;;;;;;2.93;0.97;;;5.70;94.40;;;;;;6075871;23;20481;-79
2021/01/14 03:22:14;;;;;;;6.47;1.27;;;5.60;94.90;;;;;;6075207;23;20420;-81
2021/01/14 03:24:40;;;;;;;3.37;1.50;;;5.90;95.00;;;;;;6050444;23;20445;-79
2021/01/14 03:27:09;;;;;;;2.50;1.10;;;5.70;94.70;;;;;;6073094;23;20505;-78
2021/01/14 03:29:40;;;;;;;2.53;1.47;;;5.70;94.70;;;;;;6051486;23;20410;-79
2021/01/14 03:32:07;;;;;;;2.40;1.00;;;5.60;95.20;;;;;;6051707;23;20893;-79
2021/01/14 03:34:39;;;;;;;6.23;1.17;;;5.60;95.30;;;;;;6071808;23;20770;-82
2021/01/14 03:37:08;;;;;;;9.10;2.00;;;5.50;95.10;;;;;;6073188;23;20417;-81
2021/01/14 03:39:41;;;;;;;3.57;1.30;;;5.60;95.30;;;;;;6076263;23;20390;-79
2021/01/14 03:42:10;;;;;;;3.80;1.33;;;5.60;95.40;;;;;;6075337;23;20486;-78
2021/01/14 03:44:40;;;;;;;1.67;1.10;;;5.80;95.20;;;;;;6052586;23;20433;-78
2021/01/14 03:47:09;;;;;;;3.90;1.20;;;5.80;94.80;;;;;;6066667;23;20551;-80
2021/01/14 03:49:42;;;;;;;1.30;1.10;;;6.00;93.90;;;;;;6023616;23;20510;-80
2021/01/14 03:52:19;;;;;;;6.90;2.10;;;5.80;94.00;;;;;;6046835;23;20759;-79
2021/01/14 03:54:48;;;;;;;4.53;1.40;;;5.90;93.90;;;;;;6048645;23;20513;-79
2021/01/14 03:57:17;;;;;;;2.60;1.30;;;5.80;93.90;;;;;;6048592;23;20443;-79
2021/01/14 03:59:44;;;;;;;4.17;1.33;;;5.90;94.00;;;;;;6047207;23;20418;-79
2021/01/14 04:02:17;;;;;;;3.97;1.57;;;5.70;94.30;;;;;;6023195;23;20470;-79
2021/01/14 04:04:44;;;;;;;3.93;1.40;;;5.60;94.70;;;;;;6047983;23;20438;-79
2021/01/14 04:07:15;;;;;;;2.47;1.23;;;5.60;95.00;;;;;;6046332;23;20902;-79
2021/01/14 04:09:46;;;;;;;9.77;2.77;;;6.00;94.90;;;;;;6048174;23;20418;-79
2021/01/14 04:12:26;;;;;;;6.20;2.10;;;5.80;94.50;;;;;;6046833;23;20425;-79
2021/01/14 04:14:58;;;;;;;4.10;1.97;;;5.60;94.60;;;;;;6045557;23;20419;-80
2021/01/14 04:17:28;;;;;;;5.63;1.80;;;5.80;94.90;;;;;;6054323;23;20405;-80
2021/01/14 04:19:59;;;;;;;4.50;1.63;;;5.60;95.00;;;;;;6054342;23;20398;-83
2021/01/14 04:22:48;;;;;;;5.40;1.50;;;5.50;95.20;;;;;;6013900;23;20738;-80
2021/01/14 04:25:15;;;;;;;3.43;1.70;;;5.60;95.40;;;;;;6038093;23;20433;-80
2021/01/14 04:27:41;;;;;;;6.33;1.80;;;5.80;95.30;;;;;;6039964;23;20447;-81
2021/01/14 04:30:13;;;;;;;11.87;2.13;;;5.90;94.60;;;;;;6039014;23;20434;-82
2021/01/14 04:32:40;;;;;;;1.97;1.20;;;5.70;94.50;;;;;;6037392;23;20617;-81
2021/01/14 04:35:15;;;;;;;3.97;2.10;;;5.60;94.80;;;;;;6035959;23;20462;-80
2021/01/14 04:37:41;;;;;;;3.53;1.50;;;5.50;95.30;;;;;;6043943;23;20406;-79
2021/01/14 04:40:18;;;;;;;5.20;1.70;;;5.60;95.50;;;;;;6045502;23;20425;-79
2021/01/14 04:42:54;;;;;;;5.57;1.40;;;5.50;95.60;;;;;;6046484;23;20659;-81
2021/01/14 04:45:22;;;;;;;5.17;1.53;;;5.50;95.30;;;;;;6043274;23;20445;-79
2021/01/14 04:47:56;;;;;;;3.70;1.97;;;5.50;95.50;;;;;;6046215;23;20483;-80
2021/01/14 04:50:30;;;;;;;5.73;1.87;;;5.30;95.70;;;;;;6045283;23;20410;-79
2021/01/14 04:53:04;;;;;;;10.40;2.10;;;5.40;96.10;;;;;;6041981;23;20442;-80
2021/01/14 04:55:55;;;;;;;3.50;1.80;;;5.30;96.20;;;;;;6044016;23;20414;-81
2021/01/14 04:58:29;;;;;;;4.33;1.73;;;5.40;96.20;;;;;;6043815;23;20474;-80
2021/01/14 05:01:21;;;;;;;4.43;1.40;;;5.50;96.10;;;;;;6045063;23;20433;-79
2021/01/14 05:03:57;;;;;;;4.53;1.50;;;5.80;95.40;;;;;;6044825;23;20761;-80
2021/01/14 05:06:36;;;;;;;3.63;1.20;;;5.90;95.10;;;;;;6046369;23;20461;-79
2021/01/14 05:09:10;;;;;;;8.93;2.17;;;5.90;94.70;;;;;;6022189;23;20383;-79
2021/01/14 05:11:47;;;;;;;8.30;1.93;;;5.70;95.20;;;;;;6045061;23;20394;-79
2021/01/14 05:14:24;;;;;;;6.20;1.93;;;5.60;95.50;;;;;;6037735;23;20434;-81
2021/01/14 05:16:53;;;;;;;3.20;1.70;;;5.80;95.10;;;;;;6045299;23;20403;-80
2021/01/14 05:19:26;;;;;;;3.53;1.30;;;5.60;95.10;;;;;;6046353;23;20907;-79
2021/01/14 05:22:06;;;;;;;7.20;1.60;;;5.90;95.20;;;;;;6046389;23;20418;-78
2021/01/14 05:24:32;;;;;;;3.97;1.53;;;6.00;94.60;;;;;;6044617;23;20426;-78
2021/01/14 05:27:01;;;;;;;6.20;2.20;;;6.10;94.50;;;;;;6045453;23;20450;-79
2021/01/14 05:30:00;;;;;;;8.90;2.93;;;5.80;94.80;;;;;;6045840;23;20414;-80
2021/01/14 05:32:44;;;;;;;6.43;2.13;;;5.60;95.30;;;;;;6041990;23;20522;-79
2021/01/14 05:35:22;;;;;;;6.07;1.90;;;5.40;96.00;;;;;;6045209;23;20494;-79
2021/01/14 05:38:04;;;;;;;6.87;1.87;;;5.20;96.40;;;;;;6045290;23;20442;-79
2021/01/14 05:40:31;;;;;;;12.53;3.70;;;5.40;96.40;;;;;;6045712;23;20473;-79
2021/01/14 05:43:07;;;;;;;3.53;1.70;;;5.30;96.50;;;;;;6046235;23;20438;-80
2021/01/14 05:45:37;;;;;;;8.03;5.60;;;5.30;96.70;;;;;;6044251;23;20420;-80
2021/01/14 05:48:21;;;;;;;4.07;1.70;;;5.20;96.80;;;;;;6037654;23;20421;-79
2021/01/14 05:50:49;;;;;;;3.27;1.20;;;5.10;97.10;;;;;;6047223;23;20429;-80
2021/01/14 05:53:20;;;;;;;2.27;1.40;;;5.50;96.70;;;;;;6067985;23;20438;-81
2021/01/14 05:55:59;;;;;;;4.73;1.60;;;5.70;95.80;;;;;;6071295;23;20462;-79
2021/01/14 05:58:26;;;;;;;3.50;1.73;;;5.50;96.00;;;;;;6048479;23;20424;-79
2021/01/14 06:01:05;;;;;;;3.43;1.40;;;5.30;96.40;;;;;;6048410;23;20474;-79
2021/01/14 06:03:34;;;;;;;5.30;1.50;;;5.50;96.40;;;;;;6049246;23;20827;-79
2021/01/14 06:06:15;;;;;;;5.00;1.53;;;5.60;96.10;;;;;;6070067;23;20411;-79
2021/01/14 06:09:05;;;;;;;3.77;1.60;;;5.80;95.60;;;;;;6071414;23;20803;-79
2021/01/14 06:12:13;;;;;;;4.10;1.60;;;5.60;95.40;;;;;;6067449;23;20391;-79
2021/01/14 06:14:48;;;;;;;5.20;1.70;;;5.50;96.10;;;;;;6068582;23;20529;-79
2021/01/14 06:17:31;;;;;;;6.50;1.40;;;5.30;96.60;;;;;;6044990;23;20407;-78
2021/01/14 06:20:15;;;;;;;7.73;1.73;;;5.20;97.10;;;;;;6064732;23;20422;-78
2021/01/14 06:22:48;;;;;;;9.97;2.07;;;5.10;97.50;;;;;;6045101;23;20883;-81
2021/01/14 06:25:17;;;;;;;5.93;2.10;;;5.00;97.60;;;;;;6048321;23;20439;-78
2021/01/14 06:27:59;;;;;;;5.00;1.60;;;5.10;97.70;;;;;;6047740;23;20431;-80
2021/01/14 06:30:58;;;;;;;8.90;1.73;;;5.20;97.80;;;;;;6068084;23;20483;-79
2021/01/14 06:33:34;;;;;;;4.87;1.77;;;5.20;97.60;;;;;;6070116;23;20729;-80
2021/01/14 06:36:16;;;;;;;2.60;1.60;;;5.10;97.60;;;;;;6048309;23;20745;-79
2021/01/14 06:39:01;;;;;;;6.00;2.20;;;5.10;97.70;;;;;;6069603;23;20403;-79
2021/01/14 06:41:45;;;;;;;4.53;1.60;;;5.10;97.90;;;;;;6067931;23;20399;-80
2021/01/14 06:44:15;;;;;;;6.43;2.20;;;5.00;98.10;;;;;;6047340;23;20533;-79
2021/01/14 06:47:02;;;;;;;6.67;2.10;;;5.00;98.20;;;;;;6073887;23;20456;-79
2021/01/14 06:49:50;;;;;;;6.10;1.93;;;5.00;98.30;;;;;;6047223;23;20444;-79
2021/01/14 06:52:47;;;;;;;4.23;1.73;;;5.20;98.20;;;;;;6052646;23;20435;-79
2021/01/14 06:55:24;;;;;;;8.00;2.20;;;5.30;97.80;;;;;;6039456;23;21002;-82
2021/01/14 06:58:25;;;;;;;4.60;1.83;;;5.30;97.60;;;;;;6038239;23;20759;-81
2021/01/14 07:01:04;;;;;;;3.67;1.83;;;5.40;96.90;;;;;;6037480;23;20422;-81
2021/01/14 07:03:52;;;;;;;3.47;1.73;;;5.20;97.10;;;;;;6013625;23;20482;-82
2021/01/14 07:06:26;;;;;;;8.53;2.03;;;5.00;97.30;;;;;;6013822;23;20443;-79
2021/01/14 07:08:53;;;;;;;4.53;1.60;;;5.00;97.70;;;;;;6041603;23;20418;-79
2021/01/14 07:11:33;;;;;;;9.70;2.57;;;5.20;97.90;;;;;;6022477;23;20402;-79
2021/01/14 07:14:17;;;;;;;5.23;1.80;;;5.20;97.60;;;;;;6021770;23;20430;-80
2021/01/14 07:17:01;;;;;;;8.47;2.60;;;5.10;97.60;;;;;;6045248;23;20429;-79
2021/01/14 07:19:37;;;;;;;7.57;1.97;;;4.90;97.80;;;;;;6045925;23;20411;-80
2021/01/14 07:22:19;;;;;;;8.70;2.10;;;5.00;98.10;;;;;;6047578;23;20426;-81
2021/01/14 07:24:53;;;;;;;12.13;2.33;;;5.20;97.60;;;;;;6023603;23;20426;-81
2021/01/14 07:27:24;;;;;;;5.87;1.40;;;5.10;97.60;;;;;;6040870;23;20911;-80
2021/01/14 07:29:58;;;;;;;6.70;1.97;;;5.00;98.00;;;;;;6041041;23;20417;-82
2021/01/14 07:33:04;;;;;;;5.13;1.67;;;5.00;98.20;;;;;;6043131;23;20425;-81
2021/01/14 07:35:44;;;;;;;3.57;1.60;;;5.00;98.30;;;;;;6045433;23;20767;-80
2021/01/14 07:38:17;;;;;;;4.43;1.60;;;5.10;98.20;;;;;;6045805;23;20426;-80
2021/01/14 07:40:58;;;;;;;7.37;1.90;;;5.00;98.00;;;;;;6042406;23;20398;-80
2021/01/14 07:43:32;;;;;;;6.13;2.03;;;5.10;98.10;;;;;;6020703;23;20445;-80
2021/01/14 07:46:25;;;;;;;4.87;1.60;;;5.10;98.10;;;;;;6043248;23;20881;-81
2021/01/14 07:48:53;;;;;;;3.60;1.83;;;5.10;98.00;;;;;;6064138;23;20477;-82
2021/01/14 07:51:20;;;;;;;5.30;2.20;;;5.30;97.80;;;;;;6044560;23;20655;-83
2021/01/14 07:54:07;;;;;;;8.77;2.70;;;5.40;97.20;;;;;;6044792;23;20441;-82
2021/01/14 07:56:50;;;;;;;5.17;2.47;;;5.30;97.30;;;;;;6044366;23;20421;-82
2021/01/14 07:59:28;;;;;;;8.40;3.80;;;5.40;97.30;;;;;;6067653;23;20417;-81
2021/01/14 08:02:08;;;;;;;9.17;2.37;;;5.70;96.80;;;;;;6066708;23;20488;-80
2021/01/14 08:04:48;;;;;;;5.67;2.30;;;5.60;96.50;;;;;;6067140;23;20476;-82
2021/01/14 08:07:25;;;;;;;9.03;2.40;;;5.50;97.00;;;;;;6066796;23;20445;-82
2021/01/14 08:09:52;;;;;;;7.83;2.30;;;5.40;97.30;;;;;;6067127;23;20456;-82
2021/01/14 08:12:20;;;;;;;2.80;1.70;;;5.70;96.80;;;;;;6070755;23;20410;-82
2021/01/14 08:14:47;;;;;;;4.20;2.07;;;5.50;96.80;;;;;;6068529;23;20510;-82
2021/01/14 08:17:26;;;;;;;3.87;1.83;;;5.40;96.90;;;;;;6069582;23;20496;-81
2021/01/14 08:19:54;;;;;;;7.43;3.93;;;5.30;96.70;;;;;;6067069;23;20442;-80
2021/01/14 08:22:21;;;;;;;5.20;2.00;;;5.20;97.00;;;;;;6071071;23;20418;-82
2021/01/14 08:24:53;;;;;;;3.60;2.00;;;5.10;97.30;;;;;;6065833;23;20925;-80
2021/01/14 08:27:33;;;;;;;10.47;7.00;;;5.30;97.50;;;;;;6068254;23;20536;-81
2021/01/14 08:30:13;;;;;;;3.43;1.50;;;5.80;96.40;;;;;;6066786;23;20452;-81
2021/01/14 08:33:01;;;;;;;4.43;2.17;;;6.00;95.70;;;;;;6065326;23;20406;-78
2021/01/14 08:35:33;;;;;;;3.47;1.60;;;6.00;95.20;;;;;;6051893;23;20457;-81
2021/01/14 08:38:18;;;;;;;6.60;2.07;;;5.70;95.60;;;;;;6044052;23;20414;-81
2021/01/14 08:40:46;;;;;;;6.40;2.30;;;5.80;96.20;;;;;;6067332;23;20417;-81
2021/01/14 08:43:21;;;;;;;7.10;1.70;;;5.70;96.20;;;;;;6066933;23;20902;-83
2021/01/14 08:45:53;;;;;;;6.40;2.27;;;5.60;96.60;;;;;;6048767;23;20456;-81
2021/01/14 08:48:27;;;;;;;2.80;1.63;;;5.60;96.00;;;;;;6072856;23;20891;-81
2021/01/14 08:50:53;;;;;;;3.87;1.67;;;5.50;95.90;;;;;;6075499;23;20694;-80
2021/01/14 08:53:23;;;;;;;2.50;1.77;;;5.40;95.80;;;;;;6076579;23;20418;-80
2021/01/14 08:55:59;;;;;;;9.53;2.67;;;5.40;95.70;;;;;;6080550;23;20403;-81
2021/01/14 08:58:39;;;;;;;5.57;2.17;;;5.40;95.60;;;;;;6085925;23;20453;-80
2021/01/14 09:01:09;;;;;;;4.17;2.23;;;5.60;95.40;;;;;;6085187;23;20416;-79
2021/01/14 09:03:36;;;;;;;4.83;1.83;;;5.90;94.90;;;;;;6083140;23;20433;-81
2021/01/14 09:06:03;;;;;;;4.63;2.50;;;5.70;94.50;;;;;;6074425;23;20428;-82
2021/01/14 09:08:30;;;;;;;3.87;1.93;;;5.50;94.60;;;;;;6050444;23;20429;-83
2021/01/14 09:10:57;;;;;;;5.93;1.60;;;5.80;94.40;;;;;;6053834;23;20651;-82
2021/01/14 09:13:28;;;;;;;3.50;2.00;;;6.00;94.50;;;;;;6084921;23;20417;-79
2021/01/14 09:15:57;;;;;;;8.03;2.87;;;5.80;94.00;;;;;;6085092;23;20421;-80
2021/01/14 09:18:33;;;;;;;6.60;2.40;;;5.50;94.40;;;;;;6075946;23;20832;-82
2021/01/14 09:21:00;;;;;;;4.20;1.97;;;5.50;95.00;;;;;;6067766;23;20711;-82
2021/01/14 09:23:36;;;;;;;3.20;1.90;;;5.70;95.90;;;;;;6048535;23;20418;-81
2021/01/14 09:26:12;;;;;;;8.57;2.27;;;5.60;95.30;;;;;;6067614;23;20397;-82
2021/01/14 09:28:39;;;;;;;12.53;1.80;;;5.50;95.40;;;;;;6045953;23;20427;-82
2021/01/14 09:31:07;;;;;;;3.70;1.93;;;5.60;95.30;;;;;;6076929;23;20414;-82
2021/01/14 09:33:36;;;;;;;5.60;1.80;;;5.50;95.10;;;;;;6069264;23;20440;-82
2021/01/14 09:36:19;;;;;;;4.27;1.70;;;5.60;95.30;;;;;;6068464;23;20496;-83
2021/01/14 09:38:59;;;;;;;4.20;1.97;;;5.80;94.60;;;;;;6068661;23;20416;-80
2021/01/14 09:41:29;;;;;;;5.30;1.73;;;6.00;94.00;;;;;;6066383;23;20421;-83
2021/01/14 09:44:08;;;;;;;4.83;2.23;;;6.10;93.60;;;;;;6041404;23;20921;-80
2021/01/14 09:46:36;;;;;;;4.57;2.53;;;5.80;93.80;;;;;;6042433;23;20433;-83
2021/01/14 09:49:14;;;;;;;2.93;1.80;;;6.00;94.00;;;;;;6065645;23;20456;-81
2021/01/14 09:51:46;;;;;;;10.13;2.20;;;6.20;93.60;;;;;;6068462;23;20485;-82
2021/01/14 09:54:12;;;;;;;5.93;2.13;;;5.80;93.80;;;;;;6065804;23;21366;-81
2021/01/14 09:56:48;;;;;;;6.80;2.33;;;5.70;94.50;;;;;;6067120;23;20428;-81
2021/01/14 09:59:27;;;;;;;10.27;2.00;;;6.00;94.40;;;;;;6068579;23;20396;-81
2021/01/14 10:02:05;;;;;;;8.93;2.13;;;5.90;94.10;;;;;;6042568;23;20676;-80
2021/01/14 10:04:35;;;;;;;7.93;1.87;;;5.70;94.70;;;;;;6067937;23;20472;-82
2021/01/14 10:07:04;;;;;;;3.90;2.00;;;5.60;95.00;;;;;;6067774;23;20781;-81
2021/01/14 10:09:34;;;;;;;4.37;2.47;;;5.60;95.40;;;;;;6067552;23;20417;-82
2021/01/14 10:12:03;;;;;;;4.30;2.20;;;6.00;94.70;;;;;;6067987;23;20456;-83
2021/01/14 10:14:29;;;;;;;7.10;3.00;;;5.90;94.10;;;;;;6067693;23;20512;-81
2021/01/14 10:17:10;;;;;;;5.23;2.37;;;5.80;94.10;;;;;;6069323;23;20435;-80
2021/01/14 10:19:43;;;;;;;5.47;2.50;;;5.80;94.00;;;;;;6065588;23;20917;-81
2021/01/14 10:22:09;;;;;;;5.17;2.27;;;5.60;94.50;;;;;;6066547;23;20435;-81
2021/01/14 10:24:36;;;;;;;3.23;1.93;;;5.50;95.10;;;;;;6066161;23;20429;-80
2021/01/14 10:27:16;;;;;;;3.50;2.40;;;5.70;94.90;;;;;;6066036;23;20442;-80
2021/01/14 10:29:44;;;;;;;7.50;2.73;;;5.80;94.10;;;;;;6067001;23;20436;-80
2021/01/14 10:32:12;;;;;;;5.33;2.10;;;5.60;94.10;;;;;;6064974;23;20464;-83
2021/01/14 10:34:41;;;;;;;5.60;2.60;;;5.60;94.20;;;;;;6063866;23;20506;-81
2021/01/14 10:37:37;;;;;;;9.20;2.60;;;5.60;93.80;;;;;;6040127;23;20417;-78
2021/01/14 10:40:17;;;;;;;4.70;3.00;;;5.50;94.00;;;;;;6040290;23;20450;-82
2021/01/14 10:42:48;;;;;;;2.77;2.47;;;5.30;94.40;;;;;;6065828;23;20416;-82
2021/01/14 10:45:23;;;;;;;7.40;2.33;;;5.20;94.80;;;;;;6062955;23;20444;-82
2021/01/14 10:47:50;;;;;;;8.27;3.90;;;5.10;94.60;;;;;;6064598;23;20441;-83
2021/01/14 10:50:27;;;;;;;7.03;2.20;;;5.00;95.10;;;;;;6065507;23;20437;-82
2021/01/14 10:53:02;;;;;;;3.47;2.50;;;5.00;95.30;;;;;;6065437;23;20390;-81
2021/01/14 10:55:29;;;;;;;6.30;2.47;;;5.20;94.60;;;;;;6063423;23;20425;-81
2021/01/14 10:58:07;;;;;;;3.70;2.40;;;5.20;94.30;;;;;;6065822;23;20424;-82
2021/01/14 11:00:38;;;;;;;5.03;2.40;;;5.10;93.90;;;;;;6065695;23;20414;-81
2021/01/14 11:03:07;;;;;;;5.77;2.83;;;5.10;94.20;;;;;;6065137;23;20512;-80
2021/01/14 11:05:43;;;;;;;4.33;2.80;;;5.20;94.40;;;;;;6040632;23;20428;-82
2021/01/14 11:08:12;;;;;;;11.33;2.90;;;5.20;94.40;;;;;;6067575;23;20432;-81
2021/01/14 11:10:39;;;;;;;2.63;1.70;;;5.30;94.30;;;;;;6066086;23;20410;-82
2021/01/14 11:13:10;;;;;;;4.77;2.40;;;5.20;94.10;;;;;;6064928;23;20500;-81
2021/01/14 11:15:37;;;;;;;3.60;2.40;;;5.20;94.40;;;;;;6066330;23;20398;-80
2021/01/14 11:18:05;;;;;;;2.10;1.90;;;5.30;94.70;;;;;;6066271;23;20921;-81
2021/01/14 11:20:31;;;;;;;5.03;2.87;;;5.50;94.40;;;;;;6066310;23;20492;-82
2021/01/14 11:23:01;;;;;;;3.03;2.73;;;5.40;94.00;;;;;;6065863;23;20425;-83
2021/01/14 11:25:29;;;;;;;2.43;2.23;;;5.50;94.20;;;;;;6066140;23;20436;-83
2021/01/14 11:27:57;;;;;;;3.73;2.20;;;5.60;93.70;;;;;;6072363;23;20434;-82
2021/01/14 11:30:24;;;;;;;5.43;2.70;;;5.70;93.60;;;;;;6070511;23;20488;-83
2021/01/14 11:32:51;;;;;;;8.23;2.57;;;5.60;93.70;;;;;;6067906;23;20413;-81
2021/01/14 11:35:17;;;;;;;6.60;2.43;;;5.70;93.60;;;;;;6067022;23;20812;-81
2021/01/14 11:37:44;;;;;;;4.60;2.30;;;5.80;93.70;;;;;;6065770;23;20449;-81
2021/01/14 11:40:11;;;;;;;3.10;2.47;;;5.80;93.40;;;;;;6065514;23;20472;-83
2021/01/14 11:42:37;;;;;;;4.90;2.50;;;5.60;93.30;;;;;;6065269;23;20425;-82
2021/01/14 11:45:04;;;;;;;4.03;2.83;;;5.50;93.60;;;;;;6065686;23;20516;-83
2021/01/14 11:47:30;;;;;;;3.83;2.10;;;5.50;93.50;;;;;;6040917;23;20448;-82
2021/01/14 11:49:57;;;;;;;5.20;2.07;;;5.50;93.20;;;;;;6065663;23;20425;-82
2021/01/14 11:52:23;;;;;;;4.43;2.43;;;5.40;93.00;;;;;;6065104;23;20460;-83
2021/01/14 11:54:51;;;;;;;5.10;2.13;;;5.40;93.40;;;;;;6064162;23;20444;-81
2021/01/14 11:57:17;;;;;;;4.70;2.37;;;5.40;93.30;;;;;;6039071;23;20863;-82
2021/01/14 11:59:43;;;;;;;5.40;2.63;;;5.30;93.60;;;;;;6064468;23;20468;-80
2021/01/14 12:02:09;;;;;;;5.90;2.50;;;5.40;93.90;;;;;;6064732;23;20429;-81
2021/01/14 12:04:36;;;;;;;2.93;1.97;;;5.50;93.80;;;;;;6064295;23;20520;-82
2021/01/14 12:07:02;;;;;;;3.60;2.27;;;5.50;93.40;;;;;;6063503;23;20533;-80
2021/01/14 12:09:30;;;;;;;2.63;2.37;;;5.40;93.40;;;;;;6070847;23;20385;-82
2021/01/14 12:11:56;;;;;;;4.00;2.47;;;5.40;93.50;;;;;;6067910;23;20436;-81
2021/01/14 12:14:23;;;;;;;4.17;2.30;;;5.30;93.70;;;;;;6040739;23;20532;-83
2021/01/14 12:16:49;;;;;;;3.73;2.53;;;5.40;94.00;;;;;;6063515;23;20743;-82
2021/01/14 12:19:16;;;;;;;3.00;2.10;;;5.30;94.70;;;;;;6076983;23;20441;-81
2021/01/14 12:21:42;;;;;;;5.80;2.83;;;5.50;94.10;;;;;;6077517;23;20420;-80
2021/01/14 12:24:09;;;;;;;6.03;2.50;;;5.50;93.90;;;;;;6050888;23;20899;-81
2021/01/14 12:26:35;;;;;;;2.70;2.40;;;5.40;93.90;;;;;;6075798;23;20410;-81
2021/01/14 12:29:03;;;;;;;3.93;2.50;;;5.40;94.20;;;;;;6049643;23;20433;-81
2021/01/14 12:31:35;;;;;;;2.77;2.20;;;5.60;94.20;;;;;;6071972;23;20429;-80
2021/01/14 12:34:02;;;;;;;6.83;2.63;;;5.70;93.40;;;;;;6067833;23;20508;-82
2021/01/14 12:36:31;;;;;;;4.00;2.40;;;5.70;93.40;;;;;;6066969;23;20740;-82
2021/01/14 12:38:57;;;;;;;7.80;3.30;;;5.50;93.60;;;;;;6064392;23;20424;-82
2021/01/14 12:41:33;;;;;;;2.20;2.10;;;5.20;94.20;;;;;;6066250;23;20398;-82
2021/01/14 12:44:01;;;;;;;2.73;2.53;;;5.50;94.60;;;;;;6066481;23;20448;-81
2021/01/14 12:46:32;;;;;;;5.40;3.17;;;5.80;93.90;;;;;;6064519;23;20398;-83
2021/01/14 12:48:59;;;;;;;2.93;2.27;;;5.80;93.90;;;;;;6040587;23;20501;-82
2021/01/14 12:51:25;;;;;;;6.17;3.27;;;5.60;93.90;;;;;;6035990;23;20433;-82
2021/01/14 12:53:51;;;;;;;3.80;2.83;;;5.60;94.10;;;;;;6038771;23;20426;-82
2021/01/14 12:56:17;;;;;;;3.77;2.53;;;5.60;94.20;;;;;;6013750;23;20418;-82
2021/01/14 12:58:46;;;;;;;5.37;3.00;;;5.80;93.90;;;;;;6040162;23;20417;-81
2021/01/14 13:01:12;;;;;;;6.90;2.93;;;5.80;93.80;;;;;;6038062;23;20524;-79
2021/01/14 13:03:48;;;;;;;5.10;3.07;;;5.80;93.90;;;;;;6040840;23;20575;-82
2021/01/14 13:06:28;;;;;;;5.23;2.30;;;5.90;93.40;;;;;;6023861;23;20411;-78
2021/01/14 13:08:56;;;;;;;4.33;3.47;;;5.70;93.50;;;;;;6047902;23;20418;-79
2021/01/14 13:11:24;;;;;;;6.37;4.10;;;5.70;93.60;;;;;;6049014;23;20438;-79
2021/01/14 13:13:51;;;;;;;14.80;4.40;;;5.60;93.90;;;;;;6046579;23;20441;-80
2021/01/14 13:16:18;;;;;;;8.83;4.27;;;5.60;94.00;;;;;;6046767;23;20415;-80
2021/01/14 13:18:45;;;;;;;5.60;3.20;;;5.40;94.50;;;;;;6044793;23;20414;-83
2021/01/14 13:21:12;;;;;;;7.60;3.10;;;5.70;94.60;;;;;;6039481;23;20450;-82
2021/01/14 13:23:38;;;;;;;8.00;4.53;;;5.80;93.90;;;;;;6038306;23;20848;-81
2021/01/14 13:26:08;;;;;;;4.33;3.60;;;5.70;93.90;;;;;;6038552;23;20422;-83
2021/01/14 13:28:36;;;;;;;8.87;2.97;;;5.70;94.20;;;;;;6037854;23;20442;-80
2021/01/14 13:31:03;;;;;;;6.70;3.40;;;5.70;94.50;;;;;;6036576;23;20425;-82
2021/01/14 13:33:29;;;;;;;3.70;2.80;;;5.70;94.40;;;;;;6036654;23;20438;-81